createdAt,value
2023-01-26T00:00:41.291Z,50.87
2023-01-26T00:03:04.931Z,49.33
2023-01-26T00:05:29.520Z,50.67
2023-01-26T00:07:52.779Z,56.13
2023-01-26T00:10:16.906Z,52.10
2023-01-26T00:12:40.363Z,49.93
2023-01-26T00:15:03.940Z,52.80
2023-01-26T00:17:27.509Z,50.07
2023-01-26T00:19:50.769Z,52.40
2023-01-26T00:22:15.359Z,56.37
2023-01-26T00:24:38.637Z,53.27
2023-01-26T00:27:01.972Z,51.07
2023-01-26T00:29:25.491Z,52.70
2023-01-26T00:31:48.855Z,50.40
2023-01-26T00:34:12.185Z,51.70
2023-01-26T00:36:38.709Z,51.13
2023-01-26T00:39:03.974Z,48.73
2023-01-26T00:41:44.923Z,49.37
2023-01-26T00:44:08.371Z,46.27
2023-01-26T00:46:31.587Z,48.73
2023-01-26T00:48:54.950Z,48.40
2023-01-26T00:51:18.257Z,52.17
2023-01-26T00:53:41.484Z,52.23
2023-01-26T00:56:07.294Z,54.77
2023-01-26T00:58:30.507Z,49.23
2023-01-26T01:00:55.097Z,52.87
2023-01-26T01:03:18.368Z,55.20
2023-01-26T01:05:43.796Z,51.87
2023-01-26T01:08:09.089Z,54.53
2023-01-26T01:10:32.374Z,50.73
2023-01-26T01:12:58.091Z,52.93
2023-01-26T01:15:21.410Z,54.80
2023-01-26T01:17:44.664Z,52.30
2023-01-26T01:20:12.145Z,54.37
2023-01-26T01:22:38.553Z,55.60
2023-01-26T01:25:01.983Z,57.33
2023-01-26T01:27:25.900Z,57.83
2023-01-26T01:29:51.194Z,57.73
2023-01-26T01:32:14.713Z,58.40
2023-01-26T01:34:37.938Z,58.33
2023-01-26T01:37:01.937Z,60.50
2023-01-26T01:39:25.199Z,56.03
2023-01-26T01:41:48.515Z,52.90
2023-01-26T01:44:20.752Z,54.50
2023-01-26T01:46:50.659Z,53.83
2023-01-26T01:49:20.754Z,52.63
2023-01-26T01:51:47.210Z,52.53
2023-01-26T01:54:15.972Z,53.23
2023-01-26T01:56:43.779Z,53.93
2023-01-26T01:59:09.625Z,56.23
2023-01-26T02:01:32.934Z,52.57
2023-01-26T02:04:01.606Z,51.60
2023-01-26T02:06:32.032Z,53.23
2023-01-26T02:08:58.344Z,59.73
2023-01-26T02:11:27.077Z,57.53
2023-01-26T02:13:51.617Z,56.20
2023-01-26T02:16:14.974Z,55.67
2023-01-26T02:18:39.172Z,58.40
2023-01-26T02:21:07.931Z,53.97
2023-01-26T02:23:49.656Z,55.27
2023-01-26T02:26:16.737Z,55.50
2023-01-26T02:28:41.856Z,53.07
2023-01-26T02:31:05.755Z,50.50
2023-01-26T02:33:32.454Z,49.93
2023-01-26T02:35:58.995Z,47.07
2023-01-26T02:38:27.925Z,48.47
2023-01-26T02:40:57.020Z,48.50
2023-01-26T02:43:22.018Z,49.43
2023-01-26T02:45:46.594Z,48.90
2023-01-26T02:48:09.943Z,48.30
2023-01-26T02:50:33.064Z,49.00
2023-01-26T02:52:56.258Z,45.57
2023-01-26T02:55:22.405Z,44.57
2023-01-26T02:57:46.966Z,42.27
2023-01-26T03:00:17.125Z,43.90
2023-01-26T03:02:42.090Z,41.97
2023-01-26T03:05:06.286Z,42.13
2023-01-26T03:07:29.971Z,41.27
2023-01-26T03:09:53.291Z,45.67
2023-01-26T03:12:16.621Z,43.40
2023-01-26T03:14:39.936Z,44.17
2023-01-26T03:17:04.623Z,46.13
2023-01-26T03:19:57.406Z,42.83
2023-01-26T03:22:39.092Z,44.20
2023-01-26T03:25:20.164Z,40.97
2023-01-26T03:27:46.751Z,42.00
2023-01-26T03:30:12.882Z,44.30
2023-01-26T03:32:38.327Z,44.53
2023-01-26T03:35:06.980Z,44.47
2023-01-26T03:37:36.862Z,45.60
2023-01-26T03:40:26.932Z,46.90
2023-01-26T03:43:07.842Z,45.43
2023-01-26T03:45:49.494Z,45.57
2023-01-26T03:48:32.229Z,45.50
2023-01-26T03:51:15.556Z,47.50
2023-01-26T03:53:57.034Z,46.13
2023-01-26T03:56:22.015Z,45.93
2023-01-26T03:58:48.729Z,47.73
2023-01-26T04:01:20.040Z,47.57
2023-01-26T04:04:07.003Z,50.80
2023-01-26T04:06:47.980Z,48.77
2023-01-26T04:09:11.302Z,48.07
2023-01-26T04:11:34.603Z,47.73
2023-01-26T04:14:15.641Z,45.97
2023-01-26T04:16:56.295Z,47.33
2023-01-26T04:19:39.462Z,46.47
2023-01-26T04:22:03.691Z,45.43
2023-01-26T04:24:29.018Z,46.87
2023-01-26T04:26:53.905Z,45.43
2023-01-26T04:29:23.763Z,51.03
2023-01-26T04:31:47.683Z,51.40
2023-01-26T04:34:17.018Z,45.60
2023-01-26T04:36:42.845Z,45.53
2023-01-26T04:39:06.485Z,50.57
2023-01-26T04:41:30.736Z,47.07
2023-01-26T04:43:59.535Z,46.40
2023-01-26T04:46:23.007Z,43.83
2023-01-26T04:48:46.437Z,46.63
2023-01-26T04:51:15.030Z,48.27
2023-01-26T04:53:40.057Z,44.63
2023-01-26T04:56:03.744Z,50.87
2023-01-26T04:58:27.630Z,48.73
2023-01-26T05:00:54.858Z,50.27
2023-01-26T05:03:18.434Z,50.00
2023-01-26T05:05:42.225Z,50.07
2023-01-26T05:08:06.650Z,47.70
2023-01-26T05:10:32.298Z,47.77
2023-01-26T05:13:14.500Z,48.20
2023-01-26T05:16:00.777Z,48.17
2023-01-26T05:18:46.849Z,49.53
2023-01-26T05:21:20.855Z,49.27
2023-01-26T05:23:46.721Z,48.43
2023-01-26T05:26:26.938Z,47.40
2023-01-26T05:28:57.012Z,50.47
2023-01-26T05:31:20.507Z,46.03
2023-01-26T05:33:44.023Z,44.67
2023-01-26T05:36:10.767Z,44.33
2023-01-26T05:38:34.843Z,43.97
2023-01-26T05:40:59.331Z,48.33
2023-01-26T05:43:24.249Z,46.10
2023-01-26T05:46:04.928Z,45.20
2023-01-26T05:48:28.444Z,46.03
2023-01-26T05:50:51.692Z,44.80
2023-01-26T05:53:18.137Z,45.03
2023-01-26T05:55:42.228Z,45.53
2023-01-26T05:58:06.527Z,42.30
2023-01-26T06:00:31.550Z,46.83
2023-01-26T06:03:02.403Z,47.97
2023-01-26T06:05:25.819Z,45.87
2023-01-26T06:07:50.453Z,45.97
2023-01-26T06:10:18.931Z,43.90
2023-01-26T06:12:54.764Z,44.60
2023-01-26T06:15:39.222Z,44.33
2023-01-26T06:18:02.891Z,42.93
2023-01-26T06:20:26.326Z,41.40
2023-01-26T06:22:54.163Z,41.13
2023-01-26T06:25:17.659Z,41.73
2023-01-26T06:27:42.177Z,39.10
2023-01-26T06:30:13.629Z,39.83
2023-01-26T06:32:38.495Z,40.57
2023-01-26T06:35:03.239Z,39.10
2023-01-26T06:37:27.165Z,40.33
2023-01-26T06:39:51.199Z,36.97
2023-01-26T06:42:14.610Z,39.80
2023-01-26T06:44:38.054Z,44.10
2023-01-26T06:47:01.585Z,41.73
2023-01-26T06:49:26.770Z,40.57
2023-01-26T06:51:57.702Z,43.20
2023-01-26T06:54:41.393Z,40.80
2023-01-26T06:57:17.519Z,41.13
2023-01-26T06:59:50.593Z,40.73
2023-01-26T07:02:52.223Z,37.90
2023-01-26T07:05:17.121Z,37.93
2023-01-26T07:07:40.447Z,38.07
2023-01-26T07:10:06.686Z,40.00
2023-01-26T07:12:40.495Z,37.87
2023-01-26T07:15:04.104Z,33.27
2023-01-26T07:17:27.409Z,38.57
2023-01-26T07:19:50.658Z,37.33
2023-01-26T07:22:16.987Z,38.13
2023-01-26T07:24:40.317Z,35.13
2023-01-26T07:27:03.737Z,36.50
2023-01-26T07:29:27.297Z,35.40
2023-01-26T07:31:51.189Z,36.30
2023-01-26T07:34:14.936Z,38.93
2023-01-26T07:36:38.226Z,38.07
2023-01-26T07:39:03.101Z,41.00
2023-01-26T07:41:26.434Z,37.90
2023-01-26T07:43:51.745Z,41.80
2023-01-26T07:46:15.627Z,39.93
2023-01-26T07:48:39.834Z,39.77
2023-01-26T07:51:05.852Z,42.80
2023-01-26T07:53:30.401Z,42.57
2023-01-26T07:55:55.021Z,44.20
2023-01-26T07:58:19.086Z,41.50
2023-01-26T08:00:42.916Z,41.03
2023-01-26T08:03:06.300Z,45.20
2023-01-26T08:05:29.681Z,43.20
2023-01-26T08:07:53.270Z,45.93
2023-01-26T08:10:16.922Z,45.27
2023-01-26T08:12:42.092Z,46.00
2023-01-26T08:15:06.499Z,46.53
2023-01-26T08:17:30.377Z,43.57
2023-01-26T08:19:53.991Z,43.10
2023-01-26T08:22:17.292Z,40.57
2023-01-26T08:24:40.576Z,40.10
2023-01-26T08:27:03.893Z,39.67
2023-01-26T08:29:28.697Z,44.03
2023-01-26T08:31:52.051Z,43.43
2023-01-26T08:34:15.687Z,41.33
2023-01-26T08:36:40.701Z,45.07
2023-01-26T08:39:04.343Z,43.17
2023-01-26T08:41:27.702Z,43.87
2023-01-26T08:43:52.951Z,45.67
2023-01-26T08:46:17.748Z,48.57
2023-01-26T08:48:41.147Z,47.23
2023-01-26T08:51:07.259Z,47.57
2023-01-26T08:53:33.251Z,48.03
2023-01-26T08:55:56.620Z,41.63
2023-01-26T08:58:21.471Z,46.57
2023-01-26T09:00:44.742Z,43.90
2023-01-26T09:03:09.745Z,44.40
2023-01-26T09:05:36.501Z,44.43
2023-01-26T09:07:59.945Z,43.33
2023-01-26T09:10:23.463Z,43.87
2023-01-26T09:12:46.839Z,44.20
2023-01-26T09:15:11.153Z,42.03
2023-01-26T09:17:34.431Z,45.60
2023-01-26T09:19:59.086Z,44.90
2023-01-26T09:22:22.398Z,44.87
2023-01-26T09:24:45.631Z,44.07
2023-01-26T09:27:09.110Z,43.03
2023-01-26T09:29:32.354Z,44.57
2023-01-26T09:31:55.771Z,43.40
2023-01-26T09:34:19.210Z,41.23
2023-01-26T09:36:43.883Z,36.97
2023-01-26T09:39:07.861Z,36.40
2023-01-26T09:41:53.292Z,33.80
2023-01-26T09:44:22.069Z,33.83
2023-01-26T09:46:58.572Z,32.63
2023-01-26T09:49:27.049Z,30.53
2023-01-26T09:52:01.472Z,34.30
2023-01-26T09:54:32.575Z,35.17
2023-01-26T09:56:56.977Z,34.20
2023-01-26T09:59:31.854Z,35.10
2023-01-26T10:02:03.250Z,31.90
2023-01-26T10:04:36.412Z,34.57
2023-01-26T10:07:03.436Z,30.10
2023-01-26T10:09:46.150Z,30.83
2023-01-26T10:12:18.044Z,29.63
2023-01-26T10:14:46.606Z,27.10
2023-01-26T10:17:18.768Z,23.93
2023-01-26T10:19:47.117Z,24.00
2023-01-26T10:22:17.664Z,23.20
2023-01-26T10:24:41.402Z,20.63
2023-01-26T10:27:11.980Z,21.90
2023-01-26T10:29:35.309Z,23.60
2023-01-26T10:31:58.610Z,23.20
2023-01-26T10:34:26.045Z,23.17
2023-01-26T10:36:49.488Z,21.43
2023-01-26T10:39:16.537Z,21.23
2023-01-26T10:41:40.588Z,20.80
2023-01-26T10:44:11.985Z,21.97
2023-01-26T10:46:38.047Z,20.83
2023-01-26T10:49:04.485Z,22.00
2023-01-26T10:51:31.863Z,21.63
2023-01-26T10:54:26.078Z,20.30
2023-01-26T10:56:53.763Z,18.90
2023-01-26T10:59:32.558Z,20.57
2023-01-26T11:02:02.956Z,21.63
2023-01-26T11:04:27.385Z,19.47
2023-01-26T11:06:51.330Z,18.87
2023-01-26T11:09:24.354Z,18.07
2023-01-26T11:12:00.612Z,18.23
2023-01-26T11:14:24.386Z,16.87
2023-01-26T11:16:52.307Z,15.13
2023-01-26T11:19:42.505Z,15.73
2023-01-26T11:22:09.717Z,15.47
2023-01-26T11:24:42.528Z,16.47
2023-01-26T11:27:26.017Z,15.43
2023-01-26T11:30:11.968Z,15.60
2023-01-26T11:32:48.012Z,14.83
2023-01-26T11:35:24.112Z,15.30
2023-01-26T11:37:53.900Z,16.20
2023-01-26T11:40:30.065Z,16.07
2023-01-26T11:43:14.856Z,13.87
2023-01-26T11:45:56.282Z,13.17
2023-01-26T11:48:33.940Z,14.63
2023-01-26T11:51:05.682Z,15.77
2023-01-26T11:54:00.416Z,14.20
2023-01-26T11:56:37.236Z,12.97
2023-01-26T11:59:06.287Z,15.27
2023-01-26T12:01:35.401Z,14.47
2023-01-26T12:03:59.016Z,18.37
2023-01-26T12:06:31.108Z,15.77
2023-01-26T12:09:00.483Z,15.00
2023-01-26T12:11:31.090Z,14.70
2023-01-26T12:14:08.274Z,15.67
2023-01-26T12:16:45.756Z,14.53
2023-01-26T12:19:19.685Z,13.97
2023-01-26T12:21:46.300Z,14.93
2023-01-26T12:24:43.524Z,13.23
2023-01-26T12:27:04.059Z,12.97
2023-01-26T12:29:35.600Z,12.20
2023-01-26T12:32:05.392Z,12.77
2023-01-26T12:34:33.446Z,12.70
2023-01-26T12:37:19.302Z,12.57
2023-01-26T12:39:47.272Z,12.87
2023-01-26T12:42:27.460Z,12.20
2023-01-26T12:44:55.417Z,14.13
2023-01-26T12:47:24.805Z,12.77
2023-01-26T12:49:58.562Z,13.90
2023-01-26T12:52:28.412Z,13.93
2023-01-26T12:54:58.588Z,14.07
2023-01-26T12:57:28.435Z,14.57
2023-01-26T12:59:52.750Z,15.83
2023-01-26T13:02:28.778Z,17.27
2023-01-26T13:04:52.551Z,16.43
2023-01-26T13:07:32.454Z,19.47
2023-01-26T13:10:30.869Z,19.03
2023-01-26T13:12:59.967Z,18.73
2023-01-26T13:15:25.582Z,19.37
2023-01-26T13:18:06.506Z,21.97
2023-01-26T13:20:47.067Z,21.50
2023-01-26T13:23:46.804Z,22.07
2023-01-26T13:26:43.261Z,21.77
2023-01-26T13:29:33.693Z,21.67
2023-01-26T13:31:58.145Z,22.23
2023-01-26T13:34:27.656Z,21.50
2023-01-26T13:36:52.558Z,23.83
2023-01-26T13:39:24.345Z,23.20
2023-01-26T13:41:48.807Z,19.83
2023-01-26T13:44:18.719Z,22.67
2023-01-26T13:46:47.051Z,23.37
2023-01-26T13:49:26.429Z,21.47
2023-01-26T13:51:49.827Z,20.70
2023-01-26T13:54:15.039Z,26.63
2023-01-26T13:56:40.404Z,27.77
2023-01-26T13:59:11.392Z,28.17
2023-01-26T14:01:34.989Z,24.47
2023-01-26T14:04:08.154Z,26.30
2023-01-26T14:06:31.916Z,24.63
2023-01-26T14:08:57.484Z,26.27
2023-01-26T14:11:24.014Z,27.10
2023-01-26T14:13:52.532Z,27.03
2023-01-26T14:16:26.504Z,23.33
2023-01-26T14:18:50.313Z,27.43
2023-01-26T14:21:22.547Z,24.23
2023-01-26T14:23:45.810Z,30.00
2023-01-26T14:26:20.293Z,32.03
2023-01-26T14:28:44.578Z,31.93
2023-01-26T14:31:16.567Z,30.40
2023-01-26T14:33:39.974Z,32.63
2023-01-26T14:36:05.584Z,27.97
2023-01-26T14:38:33.055Z,30.67
2023-01-26T14:40:59.719Z,30.47
2023-01-26T14:43:23.854Z,31.57
2023-01-26T14:45:51.159Z,30.23
2023-01-26T14:48:18.213Z,31.03
2023-01-26T14:50:42.800Z,32.23
2023-01-26T14:53:06.931Z,31.27
2023-01-26T14:55:36.148Z,34.73
2023-01-26T14:58:03.002Z,32.57
2023-01-26T15:00:30.992Z,30.97
2023-01-26T15:02:57.027Z,32.83
2023-01-26T15:05:22.323Z,30.87
2023-01-26T15:07:47.148Z,34.13
2023-01-26T15:10:36.645Z,31.27
2023-01-26T15:13:03.786Z,33.87
2023-01-26T15:15:30.555Z,35.00
2023-01-26T15:18:03.980Z,33.80
2023-01-26T15:20:45.502Z,31.17
2023-01-26T15:23:31.803Z,28.47
2023-01-26T15:25:57.410Z,28.67
2023-01-26T15:28:25.780Z,27.13
2023-01-26T15:30:51.929Z,24.93
2023-01-26T15:33:40.733Z,24.80
2023-01-26T15:36:04.238Z,24.57
2023-01-26T15:38:27.506Z,25.87
2023-01-26T15:40:50.758Z,25.17
2023-01-26T15:43:19.042Z,24.53
2023-01-26T15:45:44.522Z,24.30
2023-01-26T15:48:08.369Z,24.17
2023-01-26T15:50:31.754Z,24.67
2023-01-26T15:52:55.045Z,23.47
2023-01-26T15:55:23.084Z,22.20
2023-01-26T15:57:46.341Z,28.17
2023-01-26T16:00:15.381Z,27.17
2023-01-26T16:02:38.621Z,26.97
2023-01-26T16:05:01.956Z,31.53
2023-01-26T16:07:26.168Z,30.23
2023-01-26T16:09:50.986Z,56.77
2023-01-26T16:12:33.470Z,66.07
2023-01-26T16:14:56.853Z,56.30
2023-01-26T16:17:21.547Z,48.80
2023-01-26T16:19:45.951Z,45.40
2023-01-26T16:22:11.767Z,34.70
2023-01-26T16:24:35.123Z,33.40
2023-01-26T16:26:58.358Z,30.07
2023-01-26T16:29:21.890Z,31.87
2023-01-26T16:31:45.830Z,37.67
2023-01-26T16:34:12.010Z,29.30
2023-01-26T16:36:35.359Z,30.77
2023-01-26T16:38:58.790Z,29.50
2023-01-26T16:41:26.455Z,31.93
2023-01-26T16:43:49.908Z,29.73
2023-01-26T16:46:13.366Z,31.63
2023-01-26T16:48:36.837Z,29.40
2023-01-26T16:51:03.570Z,32.97
2023-01-26T16:53:30.283Z,31.80
2023-01-26T16:55:53.705Z,31.37
2023-01-26T16:58:17.137Z,32.07
2023-01-26T17:00:40.634Z,35.33
2023-01-26T17:03:03.961Z,35.30
2023-01-26T17:05:28.077Z,31.47
2023-01-26T17:07:53.949Z,31.93
2023-01-26T17:10:18.888Z,32.97
2023-01-26T17:12:42.332Z,34.73
2023-01-26T17:15:08.218Z,33.33
2023-01-26T17:17:31.672Z,30.53
2023-01-26T17:19:55.267Z,28.00
2023-01-26T17:22:18.608Z,27.07
2023-01-26T17:24:43.769Z,29.87
2023-01-26T17:27:07.105Z,27.53
2023-01-26T17:29:31.054Z,36.77
2023-01-26T17:31:54.408Z,29.90
2023-01-26T17:34:18.736Z,33.90
2023-01-26T17:36:43.650Z,32.40
2023-01-26T17:39:11.214Z,35.47
2023-01-26T17:41:35.889Z,26.77
2023-01-26T17:43:59.481Z,32.23
2023-01-26T17:46:23.317Z,30.97
2023-01-26T17:48:47.712Z,28.83
2023-01-26T17:51:13.499Z,26.67
2023-01-26T17:53:40.510Z,25.60
2023-01-26T17:56:04.236Z,24.13
2023-01-26T17:58:29.268Z,28.67
2023-01-26T18:00:52.699Z,27.97
2023-01-26T18:03:16.876Z,27.57
2023-01-26T18:05:40.223Z,29.17
2023-01-26T18:08:03.553Z,30.20
2023-01-26T18:10:30.337Z,32.40
2023-01-26T18:12:53.652Z,34.70
2023-01-26T18:15:18.632Z,34.77
2023-01-26T18:17:42.048Z,34.77
2023-01-26T18:20:06.662Z,32.40
2023-01-26T18:22:30.204Z,30.43
2023-01-26T18:24:53.601Z,30.97
2023-01-26T18:27:17.072Z,29.20
2023-01-26T18:29:40.386Z,32.87
2023-01-26T18:32:06.220Z,29.57
2023-01-26T18:34:29.701Z,29.97
2023-01-26T18:36:52.988Z,31.17
2023-01-26T18:39:16.917Z,28.97
2023-01-26T18:41:43.252Z,31.57
2023-01-26T18:44:06.787Z,32.23
2023-01-26T18:46:30.858Z,29.13
2023-01-26T18:49:00.502Z,32.40
2023-01-26T18:51:23.911Z,31.20
2023-01-26T18:53:47.251Z,32.57
2023-01-26T18:56:13.648Z,34.83
2023-01-26T18:58:38.994Z,33.90
2023-01-26T19:01:04.221Z,33.27
2023-01-26T19:03:27.640Z,35.97
2023-01-26T19:05:52.456Z,36.53
2023-01-26T19:08:17.479Z,32.80
2023-01-26T19:10:41.668Z,31.40
2023-01-26T19:13:05.588Z,29.83
2023-01-26T19:15:28.958Z,25.53
2023-01-26T19:17:52.386Z,28.77
2023-01-26T19:20:15.990Z,27.90
2023-01-26T19:22:40.816Z,23.70
2023-01-26T19:25:04.479Z,23.60
2023-01-26T19:27:27.833Z,20.93
2023-01-26T19:29:51.691Z,19.03
2023-01-26T19:32:15.028Z,20.97
2023-01-26T19:34:38.326Z,17.53
2023-01-26T19:37:01.765Z,16.77
2023-01-26T19:39:26.705Z,17.60
2023-01-26T19:41:50.280Z,15.83
2023-01-26T19:44:13.577Z,17.63
2023-01-26T19:46:37.310Z,16.60
2023-01-26T19:49:00.705Z,18.27
2023-01-26T19:51:26.756Z,17.83
2023-01-26T19:53:53.311Z,19.80
2023-01-26T19:56:20.746Z,18.63
2023-01-26T19:58:44.772Z,20.40
2023-01-26T20:01:11.148Z,21.83
2023-01-26T20:03:34.918Z,22.33
2023-01-26T20:05:59.009Z,18.00
2023-01-26T20:08:22.531Z,18.03
2023-01-26T20:10:46.011Z,19.43
2023-01-26T20:13:10.783Z,18.87
2023-01-26T20:15:35.616Z,19.20
2023-01-26T20:17:58.926Z,17.20
2023-01-26T20:20:22.365Z,17.00
2023-01-26T20:22:45.738Z,17.33
2023-01-26T20:25:11.804Z,17.40
2023-01-26T20:27:35.441Z,18.43
2023-01-26T20:30:00.653Z,17.90
2023-01-26T20:32:23.970Z,17.23
2023-01-26T20:34:47.483Z,16.57
2023-01-26T20:37:10.782Z,14.83
2023-01-26T20:39:34.287Z,16.03
2023-01-26T20:41:58.109Z,15.00
2023-01-26T20:44:21.809Z,13.47
2023-01-26T20:46:46.672Z,16.07
2023-01-26T20:49:13.856Z,14.20
2023-01-26T20:51:39.514Z,15.53
2023-01-26T20:54:04.376Z,12.87
2023-01-26T20:56:27.962Z,13.00
2023-01-26T20:58:54.147Z,13.37
2023-01-26T21:01:18.761Z,12.30
2023-01-26T21:03:44.324Z,13.77
2023-01-26T21:06:10.296Z,12.60
2023-01-26T21:08:34.698Z,12.67
2023-01-26T21:10:58.116Z,11.43
2023-01-26T21:13:21.839Z,12.67
2023-01-26T21:15:45.278Z,12.17
2023-01-26T21:18:08.592Z,12.53
2023-01-26T21:20:33.438Z,12.63
2023-01-26T21:22:58.605Z,11.60
2023-01-26T21:25:21.922Z,10.67
2023-01-26T21:27:45.478Z,11.23
2023-01-26T21:30:11.086Z,8.67
2023-01-26T21:32:34.621Z,9.17
2023-01-26T21:34:58.263Z,9.93
2023-01-26T21:37:23.042Z,8.70
2023-01-26T21:39:46.326Z,9.20
2023-01-26T21:42:09.821Z,8.40
2023-01-26T21:44:54.813Z,7.63
2023-01-26T21:47:18.117Z,8.40
2023-01-26T21:49:41.384Z,8.30
2023-01-26T21:52:22.393Z,7.90
2023-01-26T21:54:47.398Z,8.53
2023-01-26T21:57:26.257Z,7.20
2023-01-26T21:59:49.678Z,7.70
2023-01-26T22:02:14.305Z,6.70
2023-01-26T22:04:37.671Z,6.17
2023-01-26T22:07:00.914Z,6.57
2023-01-26T22:09:25.937Z,5.93
2023-01-26T22:11:51.618Z,6.07
2023-01-26T22:14:17.451Z,5.50
2023-01-26T22:16:40.719Z,6.03
2023-01-26T22:19:04.272Z,6.03
2023-01-26T22:21:27.692Z,6.03
2023-01-26T22:23:51.168Z,5.63
2023-01-26T22:26:17.282Z,5.37
2023-01-26T22:28:44.262Z,5.97
2023-01-26T22:31:08.509Z,4.70
2023-01-26T22:33:32.540Z,6.17
2023-01-26T22:36:03.281Z,5.57
2023-01-26T22:38:26.652Z,6.33
2023-01-26T22:40:49.855Z,6.00
2023-01-26T22:43:13.160Z,5.33
2023-01-26T22:45:37.811Z,5.50
2023-01-26T22:48:01.138Z,4.40
2023-01-26T22:50:24.403Z,5.10
2023-01-26T22:52:47.659Z,5.47
2023-01-26T22:55:11.421Z,4.90
2023-01-26T22:57:34.759Z,5.00
2023-01-26T22:59:58.211Z,5.47
2023-01-26T23:02:23.077Z,4.50
2023-01-26T23:04:46.381Z,5.33
2023-01-26T23:07:09.724Z,4.03
2023-01-26T23:09:33.176Z,5.10
2023-01-26T23:11:56.463Z,5.40
2023-01-26T23:14:19.715Z,4.50
2023-01-26T23:16:43.523Z,5.27
2023-01-26T23:19:08.230Z,4.77
2023-01-26T23:21:31.916Z,3.87
2023-01-26T23:23:55.189Z,3.93
2023-01-26T23:26:18.973Z,4.10
2023-01-26T23:28:45.121Z,3.80
2023-01-26T23:31:09.427Z,3.57
2023-01-26T23:33:34.876Z,3.80
2023-01-26T23:35:59.683Z,3.47
2023-01-26T23:38:25.819Z,3.57
2023-01-26T23:40:50.908Z,3.40
2023-01-26T23:43:17.087Z,3.70
2023-01-26T23:45:40.760Z,3.47
2023-01-26T23:48:04.545Z,3.23
2023-01-26T23:50:28.172Z,3.50
2023-01-26T23:52:52.932Z,3.83
2023-01-26T23:55:16.531Z,3.10
2023-01-26T23:57:40.074Z,3.37
